sensor_id;sensor_type;location;lat;lon;timestamp;P1;durP1;ratioP1;P2;durP2;ratioP2
19854;SDS011;10088;47.946;2.532;2023-09-19T00:01:45;2.20;;;1.37;;
19854;SDS011;10088;47.946;2.532;2023-09-19T00:04:11;2.63;;;1.33;;
19854;SDS011;10088;47.946;2.532;2023-09-19T00:06:38;7.63;;;1.93;;
19854;SDS011;10088;47.946;2.532;2023-09-19T00:09:03;2.50;;;1.30;;
19854;SDS011;10088;47.946;2.532;2023-09-19T00:11:28;3.20;;;1.50;;
19854;SDS011;10088;47.946;2.532;2023-09-19T00:13:54;4.40;;;1.37;;
19854;SDS011;10088;47.946;2.532;2023-09-19T00:16:19;1.97;;;1.70;;
19854;SDS011;10088;47.946;2.532;2023-09-19T00:18:45;3.30;;;1.40;;
19854;SDS011;10088;47.946;2.532;2023-09-19T00:21:10;3.73;;;1.43;;
19854;SDS011;10088;47.946;2.532;2023-09-19T00:23:36;2.40;;;1.50;;
19854;SDS011;10088;47.946;2.532;2023-09-19T00:26:01;6.67;;;1.40;;
19854;SDS011;10088;47.946;2.532;2023-09-19T00:28:26;4.43;;;1.30;;
19854;SDS011;10088;47.946;2.532;2023-09-19T00:30:52;2.77;;;1.47;;
19854;SDS011;10088;47.946;2.532;2023-09-19T00:33:19;3.53;;;1.90;;
19854;SDS011;10088;47.946;2.532;2023-09-19T00:35:48;2.83;;;1.40;;
19854;SDS011;10088;47.946;2.532;2023-09-19T00:38:13;2.90;;;1.50;;
19854;SDS011;10088;47.946;2.532;2023-09-19T00:40:45;4.53;;;2.10;;
19854;SDS011;10088;47.946;2.532;2023-09-19T00:43:10;2.83;;;1.30;;
19854;SDS011;10088;47.946;2.532;2023-09-19T00:45:36;4.13;;;1.50;;
19854;SDS011;10088;47.946;2.532;2023-09-19T00:48:03;5.87;;;1.43;;
19854;SDS011;10088;47.946;2.532;2023-09-19T00:50:35;4.83;;;1.37;;
19854;SDS011;10088;47.946;2.532;2023-09-19T00:53:01;1.87;;;1.10;;
19854;SDS011;10088;47.946;2.532;2023-09-19T00:55:32;3.40;;;1.10;;
19854;SDS011;10088;47.946;2.532;2023-09-19T00:57:59;4.17;;;1.60;;
19854;SDS011;10088;47.946;2.532;2023-09-19T01:00:24;2.40;;;1.40;;
19854;SDS011;10088;47.946;2.532;2023-09-19T01:02:50;4.00;;;1.40;;
19854;SDS011;10088;47.946;2.532;2023-09-19T01:05:15;2.10;;;1.20;;
19854;SDS011;10088;47.946;2.532;2023-09-19T01:07:41;3.33;;;1.50;;
19854;SDS011;10088;47.946;2.532;2023-09-19T01:10:07;7.27;;;1.70;;
19854;SDS011;10088;47.946;2.532;2023-09-19T01:15:18;3.50;;;1.50;;
19854;SDS011;10088;47.946;2.532;2023-09-19T01:17:46;4.63;;;1.90;;
19854;SDS011;10088;47.946;2.532;2023-09-19T01:20:20;4.57;;;1.50;;
19854;SDS011;10088;47.946;2.532;2023-09-19T01:28:20;5.10;;;1.50;;
19854;SDS011;10088;47.946;2.532;2023-09-19T01:30:47;8.10;;;1.47;;
19854;SDS011;10088;47.946;2.532;2023-09-19T01:33:12;2.83;;;1.60;;
19854;SDS011;10088;47.946;2.532;2023-09-19T01:35:38;5.20;;;1.60;;
19854;SDS011;10088;47.946;2.532;2023-09-19T01:38:04;3.00;;;1.57;;
19854;SDS011;10088;47.946;2.532;2023-09-19T01:40:30;4.03;;;1.40;;
19854;SDS011;10088;47.946;2.532;2023-09-19T01:46:19;3.77;;;1.97;;
19854;SDS011;10088;47.946;2.532;2023-09-19T01:50:59;4.10;;;1.67;;
19854;SDS011;10088;47.946;2.532;2023-09-19T01:53:27;5.60;;;1.37;;
19854;SDS011;10088;47.946;2.532;2023-09-19T01:55:53;6.07;;;1.50;;
19854;SDS011;10088;47.946;2.532;2023-09-19T02:00:56;4.90;;;1.27;;
19854;SDS011;10088;47.946;2.532;2023-09-19T02:03:23;3.27;;;1.27;;
19854;SDS011;10088;47.946;2.532;2023-09-19T02:05:52;2.20;;;1.33;;
19854;SDS011;10088;47.946;2.532;2023-09-19T02:08:19;3.53;;;1.53;;
19854;SDS011;10088;47.946;2.532;2023-09-19T02:10:44;3.10;;;1.30;;
19854;SDS011;10088;47.946;2.532;2023-09-19T02:13:15;4.80;;;1.50;;
19854;SDS011;10088;47.946;2.532;2023-09-19T02:15:40;3.07;;;1.33;;
19854;SDS011;10088;47.946;2.532;2023-09-19T02:18:05;2.73;;;1.20;;
19854;SDS011;10088;47.946;2.532;2023-09-19T02:20:32;5.23;;;1.50;;
19854;SDS011;10088;47.946;2.532;2023-09-19T02:22:58;3.93;;;1.37;;
19854;SDS011;10088;47.946;2.532;2023-09-19T02:25:23;2.57;;;1.30;;
19854;SDS011;10088;47.946;2.532;2023-09-19T02:27:48;2.03;;;1.20;;
19854;SDS011;10088;47.946;2.532;2023-09-19T02:30:13;5.67;;;1.50;;
19854;SDS011;10088;47.946;2.532;2023-09-19T02:32:41;3.07;;;1.70;;
19854;SDS011;10088;47.946;2.532;2023-09-19T02:35:06;3.17;;;1.40;;
19854;SDS011;10088;47.946;2.532;2023-09-19T02:37:32;7.13;;;1.87;;
19854;SDS011;10088;47.946;2.532;2023-09-19T02:39:58;6.67;;;1.93;;
19854;SDS011;10088;47.946;2.532;2023-09-19T02:42:23;3.00;;;2.03;;
19854;SDS011;10088;47.946;2.532;2023-09-19T02:44:48;4.30;;;1.80;;
19854;SDS011;10088;47.946;2.532;2023-09-19T02:47:13;5.20;;;1.70;;
19854;SDS011;10088;47.946;2.532;2023-09-19T02:49:41;4.97;;;1.50;;
19854;SDS011;10088;47.946;2.532;2023-09-19T02:52:07;3.00;;;1.70;;
19854;SDS011;10088;47.946;2.532;2023-09-19T02:54:33;6.33;;;2.10;;
19854;SDS011;10088;47.946;2.532;2023-09-19T02:56:58;3.07;;;1.67;;
19854;SDS011;10088;47.946;2.532;2023-09-19T02:59:24;4.80;;;1.50;;
19854;SDS011;10088;47.946;2.532;2023-09-19T03:01:50;5.87;;;1.50;;
19854;SDS011;10088;47.946;2.532;2023-09-19T03:04:15;5.90;;;2.03;;
19854;SDS011;10088;47.946;2.532;2023-09-19T03:06:44;3.57;;;1.47;;
19854;SDS011;10088;47.946;2.532;2023-09-19T03:09:10;6.73;;;1.90;;
19854;SDS011;10088;47.946;2.532;2023-09-19T03:11:36;3.47;;;1.40;;
19854;SDS011;10088;47.946;2.532;2023-09-19T03:14:01;5.40;;;1.93;;
19854;SDS011;10088;47.946;2.532;2023-09-19T03:16:27;5.93;;;1.50;;
19854;SDS011;10088;47.946;2.532;2023-09-19T03:18:52;4.73;;;1.97;;
19854;SDS011;10088;47.946;2.532;2023-09-19T03:21:18;2.20;;;1.13;;
19854;SDS011;10088;47.946;2.532;2023-09-19T03:23:44;6.27;;;1.30;;
19854;SDS011;10088;47.946;2.532;2023-09-19T03:26:12;5.73;;;1.67;;
19854;SDS011;10088;47.946;2.532;2023-09-19T03:28:39;6.33;;;1.63;;
19854;SDS011;10088;47.946;2.532;2023-09-19T03:31:05;3.63;;;1.43;;
19854;SDS011;10088;47.946;2.532;2023-09-19T03:33:30;7.23;;;1.77;;
19854;SDS011;10088;47.946;2.532;2023-09-19T03:35:59;6.70;;;1.67;;
19854;SDS011;10088;47.946;2.532;2023-09-19T03:38:25;6.27;;;1.53;;
19854;SDS011;10088;47.946;2.532;2023-09-19T03:40:51;7.33;;;1.77;;
19854;SDS011;10088;47.946;2.532;2023-09-19T03:43:16;3.37;;;1.50;;
19854;SDS011;10088;47.946;2.532;2023-09-19T03:45:42;4.93;;;1.73;;
19854;SDS011;10088;47.946;2.532;2023-09-19T03:48:08;6.83;;;2.10;;
19854;SDS011;10088;47.946;2.532;2023-09-19T03:50:33;2.83;;;1.70;;
19854;SDS011;10088;47.946;2.532;2023-09-19T03:52:59;3.00;;;1.37;;
19854;SDS011;10088;47.946;2.532;2023-09-19T03:55:24;5.47;;;1.67;;
19854;SDS011;10088;47.946;2.532;2023-09-19T03:57:49;3.67;;;1.70;;
19854;SDS011;10088;47.946;2.532;2023-09-19T04:00:15;2.57;;;1.80;;
19854;SDS011;10088;47.946;2.532;2023-09-19T04:02:43;2.63;;;1.53;;
19854;SDS011;10088;47.946;2.532;2023-09-19T04:05:08;8.90;;;1.90;;
19854;SDS011;10088;47.946;2.532;2023-09-19T04:07:35;10.67;;;1.80;;
19854;SDS011;10088;47.946;2.532;2023-09-19T04:10:00;4.97;;;1.63;;
19854;SDS011;10088;47.946;2.532;2023-09-19T04:12:26;5.13;;;1.63;;
19854;SDS011;10088;47.946;2.532;2023-09-19T04:14:51;4.83;;;1.53;;
19854;SDS011;10088;47.946;2.532;2023-09-19T04:17:16;5.57;;;1.67;;
19854;SDS011;10088;47.946;2.532;2023-09-19T04:19:42;3.70;;;1.83;;
19854;SDS011;10088;47.946;2.532;2023-09-19T04:22:07;5.60;;;1.67;;
19854;SDS011;10088;47.946;2.532;2023-09-19T04:24:32;3.43;;;1.60;;
19854;SDS011;10088;47.946;2.532;2023-09-19T04:26:57;6.47;;;2.00;;
19854;SDS011;10088;47.946;2.532;2023-09-19T04:29:24;3.20;;;1.53;;
19854;SDS011;10088;47.946;2.532;2023-09-19T04:31:49;9.77;;;1.70;;
19854;SDS011;10088;47.946;2.532;2023-09-19T04:34:14;4.87;;;1.87;;
19854;SDS011;10088;47.946;2.532;2023-09-19T04:36:40;4.30;;;1.90;;
19854;SDS011;10088;47.946;2.532;2023-09-19T04:39:06;3.53;;;2.00;;
19854;SDS011;10088;47.946;2.532;2023-09-19T04:41:32;3.80;;;1.60;;
19854;SDS011;10088;47.946;2.532;2023-09-19T04:43:58;4.87;;;1.90;;
19854;SDS011;10088;47.946;2.532;2023-09-19T04:46:23;6.50;;;1.77;;
19854;SDS011;10088;47.946;2.532;2023-09-19T04:48:48;2.93;;;1.70;;
19854;SDS011;10088;47.946;2.532;2023-09-19T04:51:13;3.83;;;1.93;;
19854;SDS011;10088;47.946;2.532;2023-09-19T04:53:40;8.30;;;1.63;;
19854;SDS011;10088;47.946;2.532;2023-09-19T04:56:06;1.40;;;1.30;;
19854;SDS011;10088;47.946;2.532;2023-09-19T04:58:32;5.07;;;2.10;;
19854;SDS011;10088;47.946;2.532;2023-09-19T05:00:58;2.63;;;1.70;;
19854;SDS011;10088;47.946;2.532;2023-09-19T05:03:24;3.97;;;1.70;;
19854;SDS011;10088;47.946;2.532;2023-09-19T05:05:49;4.97;;;1.97;;
19854;SDS011;10088;47.946;2.532;2023-09-19T05:08:15;5.53;;;1.80;;
19854;SDS011;10088;47.946;2.532;2023-09-19T05:10:40;4.53;;;2.57;;
19854;SDS011;10088;47.946;2.532;2023-09-19T05:13:06;5.13;;;1.53;;
19854;SDS011;10088;47.946;2.532;2023-09-19T05:15:32;9.80;;;2.40;;
19854;SDS011;10088;47.946;2.532;2023-09-19T05:17:58;5.10;;;1.80;;
19854;SDS011;10088;47.946;2.532;2023-09-19T05:20:25;5.60;;;1.70;;
19854;SDS011;10088;47.946;2.532;2023-09-19T05:23:01;5.53;;;2.13;;
19854;SDS011;10088;47.946;2.532;2023-09-19T05:25:28;5.27;;;1.90;;
19854;SDS011;10088;47.946;2.532;2023-09-19T05:27:55;6.90;;;2.37;;
19854;SDS011;10088;47.946;2.532;2023-09-19T05:30:21;4.80;;;1.80;;
19854;SDS011;10088;47.946;2.532;2023-09-19T05:32:47;3.20;;;2.00;;
19854;SDS011;10088;47.946;2.532;2023-09-19T05:35:12;6.13;;;2.50;;
19854;SDS011;10088;47.946;2.532;2023-09-19T05:37:38;10.23;;;2.07;;
19854;SDS011;10088;47.946;2.532;2023-09-19T05:40:03;6.03;;;2.47;;
19854;SDS011;10088;47.946;2.532;2023-09-19T05:42:32;5.07;;;2.27;;
19854;SDS011;10088;47.946;2.532;2023-09-19T05:44:57;8.67;;;2.40;;
19854;SDS011;10088;47.946;2.532;2023-09-19T05:47:23;5.17;;;2.33;;
19854;SDS011;10088;47.946;2.532;2023-09-19T05:49:50;4.30;;;2.30;;
19854;SDS011;10088;47.946;2.532;2023-09-19T05:52:15;5.20;;;2.57;;
19854;SDS011;10088;47.946;2.532;2023-09-19T05:54:42;6.43;;;2.63;;
19854;SDS011;10088;47.946;2.532;2023-09-19T05:57:08;11.53;;;3.13;;
19854;SDS011;10088;47.946;2.532;2023-09-19T05:59:33;4.07;;;2.77;;
19854;SDS011;10088;47.946;2.532;2023-09-19T06:01:59;6.93;;;2.63;;
19854;SDS011;10088;47.946;2.532;2023-09-19T06:04:25;6.10;;;2.40;;
19854;SDS011;10088;47.946;2.532;2023-09-19T06:06:50;5.07;;;3.23;;
19854;SDS011;10088;47.946;2.532;2023-09-19T06:09:16;3.47;;;2.53;;
19854;SDS011;10088;47.946;2.532;2023-09-19T06:11:42;5.10;;;2.67;;
19854;SDS011;10088;47.946;2.532;2023-09-19T06:14:07;9.07;;;3.30;;
19854;SDS011;10088;47.946;2.532;2023-09-19T06:16:32;6.30;;;2.70;;
19854;SDS011;10088;47.946;2.532;2023-09-19T06:18:58;4.67;;;2.93;;
19854;SDS011;10088;47.946;2.532;2023-09-19T06:21:25;3.87;;;2.33;;
19854;SDS011;10088;47.946;2.532;2023-09-19T06:23:51;6.83;;;2.70;;
19854;SDS011;10088;47.946;2.532;2023-09-19T06:26:17;5.87;;;3.00;;
19854;SDS011;10088;47.946;2.532;2023-09-19T06:28:42;6.07;;;2.70;;
19854;SDS011;10088;47.946;2.532;2023-09-19T06:31:07;4.37;;;3.00;;
19854;SDS011;10088;47.946;2.532;2023-09-19T06:33:35;3.80;;;2.57;;
19854;SDS011;10088;47.946;2.532;2023-09-19T06:36:03;9.67;;;2.87;;
19854;SDS011;10088;47.946;2.532;2023-09-19T06:38:29;8.83;;;2.30;;
19854;SDS011;10088;47.946;2.532;2023-09-19T06:40:55;7.20;;;3.00;;
19854;SDS011;10088;47.946;2.532;2023-09-19T06:43:20;5.63;;;3.00;;
19854;SDS011;10088;47.946;2.532;2023-09-19T06:45:45;8.03;;;3.20;;
19854;SDS011;10088;47.946;2.532;2023-09-19T06:48:11;5.20;;;2.53;;
19854;SDS011;10088;47.946;2.532;2023-09-19T06:50:37;5.87;;;3.00;;
19854;SDS011;10088;47.946;2.532;2023-09-19T06:53:03;7.67;;;2.60;;
19854;SDS011;10088;47.946;2.532;2023-09-19T06:55:29;4.80;;;2.60;;
19854;SDS011;10088;47.946;2.532;2023-09-19T06:57:56;5.07;;;2.53;;
19854;SDS011;10088;47.946;2.532;2023-09-19T07:00:21;4.33;;;2.23;;
19854;SDS011;10088;47.946;2.532;2023-09-19T07:02:57;5.93;;;2.90;;
19854;SDS011;10088;47.946;2.532;2023-09-19T07:05:23;7.50;;;3.10;;
19854;SDS011;10088;47.946;2.532;2023-09-19T07:07:49;7.87;;;2.97;;
19854;SDS011;10088;47.946;2.532;2023-09-19T07:10:14;7.27;;;2.60;;
19854;SDS011;10088;47.946;2.532;2023-09-19T07:12:39;8.80;;;3.03;;
19854;SDS011;10088;47.946;2.532;2023-09-19T07:15:06;5.07;;;2.73;;
19854;SDS011;10088;47.946;2.532;2023-09-19T07:17:31;9.33;;;2.60;;
19854;SDS011;10088;47.946;2.532;2023-09-19T07:19:58;5.13;;;2.80;;
19854;SDS011;10088;47.946;2.532;2023-09-19T07:22:23;2.77;;;2.23;;
19854;SDS011;10088;47.946;2.532;2023-09-19T07:24:49;3.80;;;2.40;;
19854;SDS011;10088;47.946;2.532;2023-09-19T07:27:14;7.00;;;2.83;;
19854;SDS011;10088;47.946;2.532;2023-09-19T07:29:39;5.47;;;2.53;;
19854;SDS011;10088;47.946;2.532;2023-09-19T07:32:04;7.00;;;2.83;;
19854;SDS011;10088;47.946;2.532;2023-09-19T07:34:31;3.53;;;2.10;;
19854;SDS011;10088;47.946;2.532;2023-09-19T07:36:56;4.50;;;1.90;;
19854;SDS011;10088;47.946;2.532;2023-09-19T07:39:21;4.37;;;2.37;;
19854;SDS011;10088;47.946;2.532;2023-09-19T07:41:47;5.17;;;2.77;;
19854;SDS011;10088;47.946;2.532;2023-09-19T07:44:13;4.87;;;2.20;;
19854;SDS011;10088;47.946;2.532;2023-09-19T07:46:39;4.40;;;2.40;;
19854;SDS011;10088;47.946;2.532;2023-09-19T07:49:04;6.73;;;2.03;;
19854;SDS011;10088;47.946;2.532;2023-09-19T07:51:30;3.70;;;2.13;;
19854;SDS011;10088;47.946;2.532;2023-09-19T07:53:55;2.30;;;1.70;;
19854;SDS011;10088;47.946;2.532;2023-09-19T07:56:21;3.90;;;2.13;;
19854;SDS011;10088;47.946;2.532;2023-09-19T07:58:47;5.97;;;2.00;;
19854;SDS011;10088;47.946;2.532;2023-09-19T08:01:12;3.80;;;2.10;;
19854;SDS011;10088;47.946;2.532;2023-09-19T08:03:39;8.33;;;2.23;;
19854;SDS011;10088;47.946;2.532;2023-09-19T08:06:08;7.40;;;2.20;;
19854;SDS011;10088;47.946;2.532;2023-09-19T08:08:34;4.13;;;2.30;;
19854;SDS011;10088;47.946;2.532;2023-09-19T08:11:05;5.53;;;2.00;;
19854;SDS011;10088;47.946;2.532;2023-09-19T08:13:36;4.73;;;1.60;;
19854;SDS011;10088;47.946;2.532;2023-09-19T08:16:02;5.80;;;1.77;;
19854;SDS011;10088;47.946;2.532;2023-09-19T08:18:28;6.33;;;2.00;;
19854;SDS011;10088;47.946;2.532;2023-09-19T08:20:55;5.13;;;1.60;;
19854;SDS011;10088;47.946;2.532;2023-09-19T08:23:23;4.03;;;1.90;;
19854;SDS011;10088;47.946;2.532;2023-09-19T08:25:48;6.33;;;1.80;;
19854;SDS011;10088;47.946;2.532;2023-09-19T08:28:14;7.10;;;1.90;;
19854;SDS011;10088;47.946;2.532;2023-09-19T08:30:44;5.40;;;1.67;;
19854;SDS011;10088;47.946;2.532;2023-09-19T08:33:09;4.73;;;2.03;;
19854;SDS011;10088;47.946;2.532;2023-09-19T08:35:35;3.73;;;1.50;;
19854;SDS011;10088;47.946;2.532;2023-09-19T08:38:01;1.80;;;1.40;;
19854;SDS011;10088;47.946;2.532;2023-09-19T08:40:30;5.13;;;1.90;;
19854;SDS011;10088;47.946;2.532;2023-09-19T08:42:58;5.30;;;1.60;;
19854;SDS011;10088;47.946;2.532;2023-09-19T08:45:24;3.90;;;1.77;;
19854;SDS011;10088;47.946;2.532;2023-09-19T08:48:05;3.60;;;1.37;;
19854;SDS011;10088;47.946;2.532;2023-09-19T08:51:00;5.50;;;1.50;;
19854;SDS011;10088;47.946;2.532;2023-09-19T08:55:52;3.43;;;1.60;;
19854;SDS011;10088;47.946;2.532;2023-09-19T08:58:21;3.27;;;1.70;;
19854;SDS011;10088;47.946;2.532;2023-09-19T09:00:49;3.37;;;1.63;;
19854;SDS011;10088;47.946;2.532;2023-09-19T09:03:16;5.53;;;1.60;;
19854;SDS011;10088;47.946;2.532;2023-09-19T09:05:44;2.87;;;1.70;;
19854;SDS011;10088;47.946;2.532;2023-09-19T09:08:12;5.43;;;1.43;;
19854;SDS011;10088;47.946;2.532;2023-09-19T09:10:38;3.50;;;1.40;;
19854;SDS011;10088;47.946;2.532;2023-09-19T09:13:05;4.53;;;1.50;;
19854;SDS011;10088;47.946;2.532;2023-09-19T09:15:31;4.20;;;1.40;;
19854;SDS011;10088;47.946;2.532;2023-09-19T09:18:00;3.60;;;1.00;;
19854;SDS011;10088;47.946;2.532;2023-09-19T09:20:25;3.30;;;1.23;;
19854;SDS011;10088;47.946;2.532;2023-09-19T09:22:51;3.20;;;1.27;;
19854;SDS011;10088;47.946;2.532;2023-09-19T09:25:17;6.03;;;1.40;;
19854;SDS011;10088;47.946;2.532;2023-09-19T09:27:43;4.80;;;1.33;;
19854;SDS011;10088;47.946;2.532;2023-09-19T09:30:08;2.80;;;1.23;;
19854;SDS011;10088;47.946;2.532;2023-09-19T09:32:34;2.70;;;0.87;;
19854;SDS011;10088;47.946;2.532;2023-09-19T09:35:01;3.13;;;1.00;;
19854;SDS011;10088;47.946;2.532;2023-09-19T09:37:27;1.80;;;1.10;;
19854;SDS011;10088;47.946;2.532;2023-09-19T09:39:57;2.20;;;1.00;;
19854;SDS011;10088;47.946;2.532;2023-09-19T09:42:33;2.53;;;1.10;;
19854;SDS011;10088;47.946;2.532;2023-09-19T09:47:41;4.00;;;1.20;;
19854;SDS011;10088;47.946;2.532;2023-09-19T09:50:06;2.87;;;1.00;;
19854;SDS011;10088;47.946;2.532;2023-09-19T09:52:43;1.50;;;0.93;;
19854;SDS011;10088;47.946;2.532;2023-09-19T09:55:09;3.73;;;1.03;;
19854;SDS011;10088;47.946;2.532;2023-09-19T09:57:35;3.27;;;0.87;;
19854;SDS011;10088;47.946;2.532;2023-09-19T10:00:00;3.37;;;1.43;;
19854;SDS011;10088;47.946;2.532;2023-09-19T10:02:38;2.83;;;1.00;;
19854;SDS011;10088;47.946;2.532;2023-09-19T10:05:18;3.07;;;0.80;;
19854;SDS011;10088;47.946;2.532;2023-09-19T10:07:53;4.40;;;1.20;;
19854;SDS011;10088;47.946;2.532;2023-09-19T10:10:31;5.17;;;1.13;;
19854;SDS011;10088;47.946;2.532;2023-09-19T10:13:14;1.73;;;0.90;;
19854;SDS011;10088;47.946;2.532;2023-09-19T10:15:50;5.93;;;0.90;;
19854;SDS011;10088;47.946;2.532;2023-09-19T10:18:21;2.10;;;1.10;;
19854;SDS011;10088;47.946;2.532;2023-09-19T10:20:46;4.37;;;1.37;;
19854;SDS011;10088;47.946;2.532;2023-09-19T10:23:14;4.07;;;1.20;;
19854;SDS011;10088;47.946;2.532;2023-09-19T10:25:45;3.00;;;1.20;;
19854;SDS011;10088;47.946;2.532;2023-09-19T10:28:12;6.73;;;0.97;;
19854;SDS011;10088;47.946;2.532;2023-09-19T10:30:40;2.63;;;1.60;;
19854;SDS011;10088;47.946;2.532;2023-09-19T10:33:09;3.90;;;0.80;;
19854;SDS011;10088;47.946;2.532;2023-09-19T10:35:35;3.77;;;1.13;;
19854;SDS011;10088;47.946;2.532;2023-09-19T10:38:03;3.10;;;0.87;;
19854;SDS011;10088;47.946;2.532;2023-09-19T10:40:29;4.70;;;1.00;;
19854;SDS011;10088;47.946;2.532;2023-09-19T10:43:01;2.03;;;1.00;;
19854;SDS011;10088;47.946;2.532;2023-09-19T10:45:28;3.40;;;0.90;;
19854;SDS011;10088;47.946;2.532;2023-09-19T10:47:56;2.40;;;1.00;;
19854;SDS011;10088;47.946;2.532;2023-09-19T10:50:22;2.97;;;1.07;;
19854;SDS011;10088;47.946;2.532;2023-09-19T10:52:48;2.87;;;0.70;;
19854;SDS011;10088;47.946;2.532;2023-09-19T10:55:27;2.60;;;0.90;;
19854;SDS011;10088;47.946;2.532;2023-09-19T10:57:53;3.87;;;0.80;;
19854;SDS011;10088;47.946;2.532;2023-09-19T11:00:19;2.57;;;0.80;;
19854;SDS011;10088;47.946;2.532;2023-09-19T11:05:32;2.00;;;0.70;;
19854;SDS011;10088;47.946;2.532;2023-09-19T11:07:58;4.40;;;0.90;;
19854;SDS011;10088;47.946;2.532;2023-09-19T11:10:44;4.57;;;0.97;;
19854;SDS011;10088;47.946;2.532;2023-09-19T11:13:27;2.50;;;0.70;;
19854;SDS011;10088;47.946;2.532;2023-09-19T11:26:40;1.87;;;0.80;;
19854;SDS011;10088;47.946;2.532;2023-09-19T11:29:24;3.07;;;1.17;;
19854;SDS011;10088;47.946;2.532;2023-09-19T11:31:50;1.27;;;0.63;;
19854;SDS011;10088;47.946;2.532;2023-09-19T11:37:00;1.43;;;0.57;;
19854;SDS011;10088;47.946;2.532;2023-09-19T11:39:26;3.03;;;0.70;;
19854;SDS011;10088;47.946;2.532;2023-09-19T11:41:52;2.37;;;0.90;;
19854;SDS011;10088;47.946;2.532;2023-09-19T11:46:55;3.50;;;0.80;;
19854;SDS011;10088;47.946;2.532;2023-09-19T11:49:33;2.23;;;0.97;;
19854;SDS011;10088;47.946;2.532;2023-09-19T11:52:01;1.43;;;0.63;;
19854;SDS011;10088;47.946;2.532;2023-09-19T11:54:30;2.57;;;0.80;;
19854;SDS011;10088;47.946;2.532;2023-09-19T11:56:57;2.20;;;0.73;;
19854;SDS011;10088;47.946;2.532;2023-09-19T11:59:26;2.40;;;0.70;;
19854;SDS011;10088;47.946;2.532;2023-09-19T12:02:04;2.43;;;0.70;;
19854;SDS011;10088;47.946;2.532;2023-09-19T12:07:12;1.83;;;0.80;;
19854;SDS011;10088;47.946;2.532;2023-09-19T12:09:41;1.07;;;0.50;;
19854;SDS011;10088;47.946;2.532;2023-09-19T12:12:19;1.73;;;1.00;;
19854;SDS011;10088;47.946;2.532;2023-09-19T12:14:47;4.23;;;0.90;;
19854;SDS011;10088;47.946;2.532;2023-09-19T12:17:13;1.43;;;0.60;;
19854;SDS011;10088;47.946;2.532;2023-09-19T12:19:38;2.13;;;0.60;;
19854;SDS011;10088;47.946;2.532;2023-09-19T12:22:04;0.90;;;0.40;;
19854;SDS011;10088;47.946;2.532;2023-09-19T12:24:29;1.87;;;0.90;;
19854;SDS011;10088;47.946;2.532;2023-09-19T12:26:56;2.40;;;0.63;;
19854;SDS011;10088;47.946;2.532;2023-09-19T12:29:27;1.60;;;0.70;;
19854;SDS011;10088;47.946;2.532;2023-09-19T12:31:55;1.57;;;0.70;;
19854;SDS011;10088;47.946;2.532;2023-09-19T12:34:29;1.20;;;0.50;;
19854;SDS011;10088;47.946;2.532;2023-09-19T12:39:37;2.13;;;0.77;;
19854;SDS011;10088;47.946;2.532;2023-09-19T12:42:03;3.73;;;0.73;;
19854;SDS011;10088;47.946;2.532;2023-09-19T12:44:29;1.27;;;0.50;;
19854;SDS011;10088;47.946;2.532;2023-09-19T12:46:54;1.93;;;0.70;;
19854;SDS011;10088;47.946;2.532;2023-09-19T12:49:24;3.03;;;0.73;;
19854;SDS011;10088;47.946;2.532;2023-09-19T12:51:49;3.83;;;0.73;;
19854;SDS011;10088;47.946;2.532;2023-09-19T12:54:19;1.53;;;0.50;;
19854;SDS011;10088;47.946;2.532;2023-09-19T12:56:45;2.13;;;0.70;;
19854;SDS011;10088;47.946;2.532;2023-09-19T12:59:12;1.53;;;0.70;;
19854;SDS011;10088;47.946;2.532;2023-09-19T13:01:39;5.40;;;0.83;;
19854;SDS011;10088;47.946;2.532;2023-09-19T13:06:51;1.57;;;0.70;;
19854;SDS011;10088;47.946;2.532;2023-09-19T13:09:17;1.33;;;0.60;;
19854;SDS011;10088;47.946;2.532;2023-09-19T13:11:43;3.03;;;0.93;;
19854;SDS011;10088;47.946;2.532;2023-09-19T13:17:00;1.67;;;0.90;;
19854;SDS011;10088;47.946;2.532;2023-09-19T13:22:05;2.93;;;1.20;;
19854;SDS011;10088;47.946;2.532;2023-09-19T13:24:30;2.60;;;0.80;;
19854;SDS011;10088;47.946;2.532;2023-09-19T13:26:58;1.97;;;1.10;;
19854;SDS011;10088;47.946;2.532;2023-09-19T13:29:25;3.13;;;1.70;;
19854;SDS011;10088;47.946;2.532;2023-09-19T13:31:51;2.57;;;1.00;;
19854;SDS011;10088;47.946;2.532;2023-09-19T13:34:18;0.90;;;0.50;;
19854;SDS011;10088;47.946;2.532;2023-09-19T13:36:44;2.53;;;0.87;;
19854;SDS011;10088;47.946;2.532;2023-09-19T13:39:09;2.10;;;0.70;;
19854;SDS011;10088;47.946;2.532;2023-09-19T13:41:35;2.60;;;0.90;;
19854;SDS011;10088;47.946;2.532;2023-09-19T13:44:04;2.57;;;1.23;;
19854;SDS011;10088;47.946;2.532;2023-09-19T13:46:30;2.03;;;0.83;;
19854;SDS011;10088;47.946;2.532;2023-09-19T13:48:58;2.50;;;0.97;;
19854;SDS011;10088;47.946;2.532;2023-09-19T13:51:25;3.20;;;0.83;;
19854;SDS011;10088;47.946;2.532;2023-09-19T13:53:50;3.20;;;1.10;;
19854;SDS011;10088;47.946;2.532;2023-09-19T13:56:16;1.90;;;1.00;;
19854;SDS011;10088;47.946;2.532;2023-09-19T13:58:41;5.83;;;1.13;;
19854;SDS011;10088;47.946;2.532;2023-09-19T14:01:07;1.30;;;0.80;;
19854;SDS011;10088;47.946;2.532;2023-09-19T14:03:37;3.00;;;0.97;;
19854;SDS011;10088;47.946;2.532;2023-09-19T14:06:02;1.87;;;0.93;;
19854;SDS011;10088;47.946;2.532;2023-09-19T14:08:27;2.33;;;0.80;;
19854;SDS011;10088;47.946;2.532;2023-09-19T14:10:53;2.80;;;0.80;;
19854;SDS011;10088;47.946;2.532;2023-09-19T14:13:18;4.63;;;0.90;;
19854;SDS011;10088;47.946;2.532;2023-09-19T14:15:45;1.70;;;0.90;;
19854;SDS011;10088;47.946;2.532;2023-09-19T14:18:10;1.53;;;0.70;;
19854;SDS011;10088;47.946;2.532;2023-09-19T14:20:37;3.53;;;1.00;;
19854;SDS011;10088;47.946;2.532;2023-09-19T14:23:03;3.50;;;0.97;;
19854;SDS011;10088;47.946;2.532;2023-09-19T14:25:28;3.67;;;0.90;;
19854;SDS011;10088;47.946;2.532;2023-09-19T14:27:55;2.00;;;0.93;;
19854;SDS011;10088;47.946;2.532;2023-09-19T14:30:20;2.73;;;1.00;;
19854;SDS011;10088;47.946;2.532;2023-09-19T14:32:46;2.73;;;1.13;;
19854;SDS011;10088;47.946;2.532;2023-09-19T14:35:11;2.73;;;1.13;;
19854;SDS011;10088;47.946;2.532;2023-09-19T14:37:38;1.97;;;0.80;;
19854;SDS011;10088;47.946;2.532;2023-09-19T14:40:05;2.47;;;1.03;;
19854;SDS011;10088;47.946;2.532;2023-09-19T14:42:33;1.20;;;1.10;;
19854;SDS011;10088;47.946;2.532;2023-09-19T14:45:01;3.50;;;0.90;;
19854;SDS011;10088;47.946;2.532;2023-09-19T14:47:26;3.43;;;0.90;;
19854;SDS011;10088;47.946;2.532;2023-09-19T14:49:53;3.00;;;1.00;;
19854;SDS011;10088;47.946;2.532;2023-09-19T14:52:18;2.60;;;0.90;;
19854;SDS011;10088;47.946;2.532;2023-09-19T14:54:44;1.80;;;0.80;;
19854;SDS011;10088;47.946;2.532;2023-09-19T14:57:09;0.97;;;0.83;;
19854;SDS011;10088;47.946;2.532;2023-09-19T14:59:35;2.37;;;1.07;;
19854;SDS011;10088;47.946;2.532;2023-09-19T15:02:03;3.10;;;0.77;;
19854;SDS011;10088;47.946;2.532;2023-09-19T15:04:29;1.50;;;0.70;;
19854;SDS011;10088;47.946;2.532;2023-09-19T15:06:54;5.00;;;1.10;;
19854;SDS011;10088;47.946;2.532;2023-09-19T15:09:20;2.30;;;0.87;;
19854;SDS011;10088;47.946;2.532;2023-09-19T15:11:47;1.73;;;0.80;;
19854;SDS011;10088;47.946;2.532;2023-09-19T15:14:12;1.30;;;0.77;;
19854;SDS011;10088;47.946;2.532;2023-09-19T15:16:37;1.40;;;0.70;;
19854;SDS011;10088;47.946;2.532;2023-09-19T15:19:03;2.93;;;1.07;;
19854;SDS011;10088;47.946;2.532;2023-09-19T15:21:28;2.63;;;1.13;;
19854;SDS011;10088;47.946;2.532;2023-09-19T15:23:53;2.83;;;0.80;;
19854;SDS011;10088;47.946;2.532;2023-09-19T15:26:19;1.60;;;0.60;;
19854;SDS011;10088;47.946;2.532;2023-09-19T15:28:45;2.83;;;0.90;;
19854;SDS011;10088;47.946;2.532;2023-09-19T15:31:11;2.20;;;0.80;;
19854;SDS011;10088;47.946;2.532;2023-09-19T15:33:37;2.73;;;0.87;;
19854;SDS011;10088;47.946;2.532;2023-09-19T15:36:06;2.30;;;0.70;;
19854;SDS011;10088;47.946;2.532;2023-09-19T15:38:32;2.17;;;0.80;;
19854;SDS011;10088;47.946;2.532;2023-09-19T15:41:19;3.43;;;0.83;;